createdAt,value
2022-12-17T00:02:17.865Z,-0.63
2022-12-17T00:07:27.990Z,-0.57
2022-12-17T00:12:38.483Z,-0.56
2022-12-17T00:17:48.912Z,-0.56
2022-12-17T00:22:59.674Z,-0.57
2022-12-17T00:28:10.209Z,-0.58
2022-12-17T00:33:20.674Z,-0.58
2022-12-17T00:38:37.854Z,-0.57
2022-12-17T00:43:48.542Z,-0.54
2022-12-17T00:48:59.650Z,-0.52
2022-12-17T00:54:10.005Z,-0.49
2022-12-17T00:59:20.611Z,-0.46
2022-12-17T01:04:30.947Z,-0.43
2022-12-17T01:09:41.311Z,-0.43
2022-12-17T01:14:51.689Z,-0.43
2022-12-17T01:20:02.147Z,-0.40
2022-12-17T01:25:12.667Z,-0.39
2022-12-17T01:30:23.186Z,-0.42
2022-12-17T01:35:33.719Z,-0.39
2022-12-17T01:40:44.207Z,-0.34
2022-12-17T01:46:02.283Z,-0.32
2022-12-17T01:51:15.230Z,-0.30
2022-12-17T01:56:27.272Z,-0.27
2022-12-17T02:01:38.103Z,-0.25
2022-12-17T02:06:54.006Z,-0.28
2022-12-17T02:12:43.816Z,-0.32
2022-12-17T02:18:08.685Z,-0.38
2022-12-17T02:23:40.134Z,-0.43
2022-12-17T02:29:03.207Z,-0.47
2022-12-17T02:34:24.787Z,-0.49
2022-12-17T02:39:35.022Z,-0.53
2022-12-17T02:44:47.424Z,-0.54
2022-12-17T02:49:57.866Z,-0.48
2022-12-17T02:55:08.175Z,-0.43
2022-12-17T03:00:18.685Z,-0.37
2022-12-17T03:05:44.545Z,-0.35
2022-12-17T03:10:55.182Z,-0.34
2022-12-17T03:16:05.833Z,-0.37
2022-12-17T03:21:16.348Z,-0.35
2022-12-17T03:26:26.812Z,-0.35
2022-12-17T03:31:37.045Z,-0.38
2022-12-17T03:36:48.412Z,-0.39
2022-12-17T03:41:58.946Z,-0.41
2022-12-17T03:47:09.119Z,-0.43
2022-12-17T03:52:19.702Z,-0.44
2022-12-17T03:57:30.275Z,-0.46
2022-12-17T04:02:40.749Z,-0.45
2022-12-17T04:07:51.338Z,-0.40
2022-12-17T04:13:01.800Z,-0.35
2022-12-17T04:18:14.883Z,-0.31
2022-12-17T04:23:24.904Z,-0.26
2022-12-17T04:28:35.181Z,-0.25
2022-12-17T04:33:45.475Z,-0.23
2022-12-17T04:38:56.037Z,-0.20
2022-12-17T04:44:17.255Z,-0.20
2022-12-17T04:49:27.056Z,-0.14
2022-12-17T04:54:37.260Z,-0.09
2022-12-17T04:59:47.413Z,-0.06
2022-12-17T05:04:57.668Z,-0.06
2022-12-17T05:10:08.025Z,-0.01
2022-12-17T05:15:17.993Z,-0.02
2022-12-17T05:20:28.397Z,-0.02
2022-12-17T05:25:38.689Z,0.00
2022-12-17T05:30:48.768Z,-0.01
2022-12-17T05:35:59.075Z,-0.01
2022-12-17T05:41:10.051Z,-0.02
2022-12-17T05:46:21.815Z,0.02
2022-12-17T05:51:37.053Z,0.04
2022-12-17T05:56:48.704Z,-0.01
2022-12-17T06:01:58.915Z,0.05
2022-12-17T06:07:09.167Z,0.06
2022-12-17T06:12:20.101Z,0.08
2022-12-17T06:17:30.569Z,0.11
2022-12-17T06:22:40.953Z,0.12
2022-12-17T06:27:51.144Z,0.12
2022-12-17T06:33:01.736Z,0.12
2022-12-17T06:38:24.118Z,0.13
2022-12-17T06:43:34.744Z,0.16
2022-12-17T06:48:45.263Z,0.21
2022-12-17T06:53:55.674Z,0.27
2022-12-17T06:59:05.910Z,0.33
2022-12-17T07:04:16.479Z,0.39
2022-12-17T07:09:27.659Z,0.46
2022-12-17T07:14:38.068Z,0.51
2022-12-17T07:19:48.179Z,0.55
2022-12-17T07:24:58.507Z,0.57
2022-12-17T07:30:08.363Z,0.60
2022-12-17T07:35:18.290Z,0.61
2022-12-17T07:40:29.213Z,0.63
2022-12-17T07:45:39.844Z,0.67
2022-12-17T07:50:49.823Z,0.73
2022-12-17T07:55:59.724Z,0.75
2022-12-17T08:01:10.267Z,0.77
2022-12-17T08:06:20.829Z,0.79
2022-12-17T08:11:31.201Z,0.84
2022-12-17T08:16:41.674Z,0.92
2022-12-17T08:21:52.235Z,0.94
2022-12-17T08:27:02.941Z,0.98
2022-12-17T08:32:13.570Z,1.03
2022-12-17T08:37:24.052Z,1.10
2022-12-17T08:42:34.401Z,1.14
2022-12-17T08:47:44.766Z,1.19
2022-12-17T08:52:55.380Z,1.25
2022-12-17T08:58:16.301Z,1.30
2022-12-17T09:03:27.369Z,1.33
2022-12-17T09:08:37.547Z,1.36
2022-12-17T09:13:48.028Z,1.38
2022-12-17T09:18:58.875Z,1.44
2022-12-17T09:24:09.211Z,1.52
2022-12-17T09:29:19.759Z,1.59
2022-12-17T09:34:30.302Z,1.67
2022-12-17T09:39:41.034Z,1.72
2022-12-17T09:45:21.918Z,1.76
2022-12-17T09:50:34.436Z,1.81
2022-12-17T09:55:58.401Z,1.86
2022-12-17T10:01:09.799Z,1.90
2022-12-17T10:06:28.434Z,1.98
2022-12-17T10:11:40.344Z,2.03
2022-12-17T10:17:00.347Z,2.15
2022-12-17T10:22:10.729Z,2.27
2022-12-17T10:27:36.541Z,2.46
2022-12-17T10:32:47.716Z,2.73
2022-12-17T10:37:58.239Z,2.83
2022-12-17T10:43:08.691Z,2.78
2022-12-17T10:48:19.168Z,2.74
2022-12-17T10:53:40.054Z,2.74
2022-12-17T10:58:50.816Z,2.72
2022-12-17T11:04:13.103Z,2.72
2022-12-17T11:09:23.533Z,2.75
2022-12-17T11:14:34.002Z,2.78
2022-12-17T11:19:58.821Z,2.82
2022-12-17T11:25:16.203Z,2.86
2022-12-17T11:30:34.041Z,2.97
2022-12-17T11:35:56.315Z,3.09
2022-12-17T11:41:29.998Z,3.20
2022-12-17T11:47:12.587Z,3.28
2022-12-17T11:52:48.564Z,3.31
2022-12-17T11:58:19.195Z,3.31
2022-12-17T12:03:49.093Z,3.30
2022-12-17T12:09:23.377Z,3.29
2022-12-17T12:15:02.797Z,3.34
2022-12-17T12:20:21.930Z,3.32
2022-12-17T12:25:47.316Z,3.33
2022-12-17T12:31:35.650Z,3.34
2022-12-17T12:36:46.850Z,3.37
2022-12-17T12:42:20.202Z,3.40
2022-12-17T12:47:40.923Z,3.42
2022-12-17T12:52:51.263Z,3.43
2022-12-17T12:58:16.152Z,3.48
2022-12-17T13:03:44.248Z,3.44
2022-12-17T13:08:37.090Z,3.49
2022-12-17T13:13:39.916Z,3.55
2022-12-17T13:18:37.955Z,3.59
2022-12-17T13:23:32.077Z,3.67
2022-12-17T13:28:31.064Z,3.70
2022-12-17T13:33:41.915Z,3.72
2022-12-17T13:39:15.664Z,3.66
2022-12-17T13:44:25.518Z,3.65
2022-12-17T13:49:22.039Z,3.63
2022-12-17T13:54:19.606Z,3.63
2022-12-17T13:59:19.063Z,3.61
2022-12-17T14:04:29.560Z,3.61
2022-12-17T14:09:23.843Z,3.61
2022-12-17T14:14:28.936Z,3.64
2022-12-17T14:19:20.833Z,3.67
2022-12-17T14:24:14.108Z,3.70
2022-12-17T14:29:13.496Z,3.73
2022-12-17T14:34:11.580Z,3.78
2022-12-17T14:39:11.204Z,3.82
2022-12-17T14:44:04.254Z,3.82
2022-12-17T14:49:03.612Z,3.82
2022-12-17T14:54:06.604Z,3.83
2022-12-17T14:58:58.384Z,3.83
2022-12-17T15:03:50.229Z,3.85
2022-12-17T15:08:47.369Z,3.87
2022-12-17T15:13:39.123Z,3.86
2022-12-17T15:18:30.851Z,3.87
2022-12-17T15:23:23.572Z,3.83
2022-12-17T15:28:17.533Z,3.81
2022-12-17T15:33:10.014Z,3.80
2022-12-17T15:38:01.968Z,3.81
2022-12-17T15:43:12.205Z,3.81
2022-12-17T15:48:03.919Z,3.84
2022-12-17T15:52:55.591Z,3.84
2022-12-17T15:57:47.152Z,3.81
2022-12-17T16:02:39.215Z,3.84
2022-12-17T16:07:31.237Z,3.82
2022-12-17T16:12:22.912Z,3.82
2022-12-17T16:17:14.621Z,3.82
2022-12-17T16:22:06.902Z,3.81
2022-12-17T16:27:04.392Z,3.76
2022-12-17T16:31:56.391Z,3.69
2022-12-17T16:36:48.121Z,3.65
2022-12-17T16:41:39.742Z,3.60
2022-12-17T16:46:36.468Z,3.55
2022-12-17T16:51:29.733Z,3.50
2022-12-17T16:56:23.726Z,3.47
2022-12-17T17:01:24.542Z,3.42
2022-12-17T17:06:17.825Z,3.36
2022-12-17T17:11:16.502Z,3.34
2022-12-17T17:16:10.046Z,3.29
2022-12-17T17:21:25.154Z,3.21
2022-12-17T17:26:17.567Z,3.20
2022-12-17T17:31:12.699Z,3.16
2022-12-17T17:36:14.239Z,3.11
2022-12-17T17:41:07.877Z,3.07
2022-12-17T17:46:14.698Z,3.05
2022-12-17T17:52:07.110Z,3.05
2022-12-17T17:56:43.596Z,3.03
2022-12-17T18:01:40.378Z,3.00
2022-12-17T18:06:32.698Z,2.97
2022-12-17T18:11:25.341Z,2.93
2022-12-17T18:16:17.989Z,2.86
2022-12-17T18:21:13.907Z,2.81
2022-12-17T18:26:14.128Z,2.75
2022-12-17T18:31:18.192Z,2.73
2022-12-17T18:36:16.032Z,2.68
2022-12-17T18:41:30.621Z,2.65
2022-12-17T18:46:23.579Z,2.61
2022-12-17T18:51:15.282Z,2.57
2022-12-17T18:56:11.164Z,2.54
2022-12-17T19:01:03.573Z,2.51
2022-12-17T19:05:55.404Z,2.48
2022-12-17T19:10:47.039Z,2.46
2022-12-17T19:15:38.658Z,2.40
2022-12-17T19:20:30.321Z,2.36
2022-12-17T19:25:22.089Z,2.31
2022-12-17T19:30:13.864Z,2.26
2022-12-17T19:35:05.820Z,2.21
2022-12-17T19:39:57.549Z,2.19
2022-12-17T19:44:49.265Z,2.17
2022-12-17T19:49:41.311Z,2.13
2022-12-17T19:54:32.983Z,2.16
2022-12-17T19:59:24.743Z,2.17
2022-12-17T20:04:16.996Z,2.19
2022-12-17T20:09:08.655Z,2.18
2022-12-17T20:14:04.121Z,2.19
2022-12-17T20:18:56.112Z,2.17
2022-12-17T20:23:49.285Z,2.12
2022-12-17T20:28:41.344Z,2.09
2022-12-17T20:33:33.573Z,2.06
2022-12-17T20:38:25.251Z,2.04
2022-12-17T20:43:17.023Z,2.02
2022-12-17T20:48:08.774Z,1.96
2022-12-17T20:53:00.532Z,1.90
2022-12-17T20:57:52.300Z,1.87
2022-12-17T21:02:43.959Z,1.82
2022-12-17T21:07:35.720Z,1.79
2022-12-17T21:12:47.450Z,1.74
2022-12-17T21:17:39.253Z,1.69
2022-12-17T21:22:30.908Z,1.61
2022-12-17T21:27:23.025Z,1.55
2022-12-17T21:32:15.623Z,1.50
2022-12-17T21:37:07.423Z,1.47
2022-12-17T21:42:20.181Z,1.46
2022-12-17T21:47:12.043Z,1.43
2022-12-17T21:52:04.035Z,1.40
2022-12-17T21:56:58.763Z,1.41
2022-12-17T22:01:51.159Z,1.39
2022-12-17T22:06:46.293Z,1.38
2022-12-17T22:11:40.949Z,1.37
2022-12-17T22:16:34.427Z,1.36
2022-12-17T22:21:26.972Z,1.35
2022-12-17T22:26:20.264Z,1.35
2022-12-17T22:31:31.597Z,1.31
2022-12-17T22:38:39.372Z,1.27
2022-12-17T22:44:38.822Z,1.25
2022-12-17T22:47:08.941Z,1.21
2022-12-17T22:52:00.723Z,1.18
2022-12-17T22:57:34.994Z,1.17
2022-12-17T23:02:04.408Z,1.15
2022-12-17T23:06:56.149Z,1.15
2022-12-17T23:11:49.028Z,1.13
2022-12-17T23:16:41.519Z,1.12
2022-12-17T23:21:33.507Z,1.05
2022-12-17T23:26:28.193Z,0.98
2022-12-17T23:31:21.524Z,0.91
2022-12-17T23:36:16.090Z,0.84
2022-12-17T23:41:10.515Z,0.79
2022-12-17T23:46:02.532Z,0.74
2022-12-17T23:50:54.367Z,0.68
2022-12-17T23:55:46.060Z,0.62
